sensor_id;sensor_type;location;lat;lon;timestamp;temperature;humidity
78619;DHT22;67941;52.506;5.470;2023-11-19T00:01:53;12.90;86.60
78619;DHT22;67941;52.506;5.470;2023-11-19T00:04:22;13.00;86.60
78619;DHT22;67941;52.506;5.470;2023-11-19T00:06:51;12.90;86.70
78619;DHT22;67941;52.506;5.470;2023-11-19T00:09:20;12.90;86.60
78619;DHT22;67941;52.506;5.470;2023-11-19T00:11:49;13.00;86.50
78619;DHT22;67941;52.506;5.470;2023-11-19T00:14:18;12.90;86.50
78619;DHT22;67941;52.506;5.470;2023-11-19T00:16:49;12.90;86.50
78619;DHT22;67941;52.506;5.470;2023-11-19T00:19:19;12.90;86.60
78619;DHT22;67941;52.506;5.470;2023-11-19T00:21:48;12.90;86.60
78619;DHT22;67941;52.506;5.470;2023-11-19T00:24:17;12.90;86.60
78619;DHT22;67941;52.506;5.470;2023-11-19T00:26:46;12.90;86.50
78619;DHT22;67941;52.506;5.470;2023-11-19T00:29:16;12.90;86.50
78619;DHT22;67941;52.506;5.470;2023-11-19T00:31:49;12.90;86.50
78619;DHT22;67941;52.506;5.470;2023-11-19T00:34:18;12.90;86.50
78619;DHT22;67941;52.506;5.470;2023-11-19T00:36:48;12.90;86.60
78619;DHT22;67941;52.506;5.470;2023-11-19T00:39:18;12.90;86.50
78619;DHT22;67941;52.506;5.470;2023-11-19T00:41:47;12.90;86.50
78619;DHT22;67941;52.506;5.470;2023-11-19T00:44:16;12.90;86.50
78619;DHT22;67941;52.506;5.470;2023-11-19T00:46:45;12.90;86.40
78619;DHT22;67941;52.506;5.470;2023-11-19T00:49:17;12.90;86.40
78619;DHT22;67941;52.506;5.470;2023-11-19T00:51:46;12.90;86.30
78619;DHT22;67941;52.506;5.470;2023-11-19T00:54:14;12.80;86.20
78619;DHT22;67941;52.506;5.470;2023-11-19T00:56:43;12.80;86.10
78619;DHT22;67941;52.506;5.470;2023-11-19T00:59:13;12.70;86.10
78619;DHT22;67941;52.506;5.470;2023-11-19T01:01:42;12.70;86.10
78619;DHT22;67941;52.506;5.470;2023-11-19T01:04:11;12.60;86.10
78619;DHT22;67941;52.506;5.470;2023-11-19T01:06:42;12.50;86.10
78619;DHT22;67941;52.506;5.470;2023-11-19T01:09:11;12.50;86.00
78619;DHT22;67941;52.506;5.470;2023-11-19T01:11:41;12.50;86.10
78619;DHT22;67941;52.506;5.470;2023-11-19T01:14:11;12.50;86.00
78619;DHT22;67941;52.506;5.470;2023-11-19T01:16:40;12.30;85.80
78619;DHT22;67941;52.506;5.470;2023-11-19T01:19:09;12.30;85.80
78619;DHT22;67941;52.506;5.470;2023-11-19T01:21:37;12.20;85.90
78619;DHT22;67941;52.506;5.470;2023-11-19T01:24:09;12.20;86.00
78619;DHT22;67941;52.506;5.470;2023-11-19T01:26:39;12.10;86.20
78619;DHT22;67941;52.506;5.470;2023-11-19T01:29:11;12.10;86.10
78619;DHT22;67941;52.506;5.470;2023-11-19T01:31:40;12.10;86.10
78619;DHT22;67941;52.506;5.470;2023-11-19T01:34:10;12.00;86.00
78619;DHT22;67941;52.506;5.470;2023-11-19T01:36:39;12.00;86.10
78619;DHT22;67941;52.506;5.470;2023-11-19T01:39:10;12.00;86.10
78619;DHT22;67941;52.506;5.470;2023-11-19T01:41:42;12.00;86.30
78619;DHT22;67941;52.506;5.470;2023-11-19T01:44:11;12.00;86.40
78619;DHT22;67941;52.506;5.470;2023-11-19T01:46:42;12.00;86.50
78619;DHT22;67941;52.506;5.470;2023-11-19T01:49:14;12.00;86.60
78619;DHT22;67941;52.506;5.470;2023-11-19T01:51:44;12.10;86.50
78619;DHT22;67941;52.506;5.470;2023-11-19T01:54:15;12.10;86.50
78619;DHT22;67941;52.506;5.470;2023-11-19T01:56:44;12.10;86.50
78619;DHT22;67941;52.506;5.470;2023-11-19T01:59:13;12.20;86.40
78619;DHT22;67941;52.506;5.470;2023-11-19T02:01:44;12.10;86.40
78619;DHT22;67941;52.506;5.470;2023-11-19T02:04:13;12.10;86.30
78619;DHT22;67941;52.506;5.470;2023-11-19T02:06:42;12.10;86.30
78619;DHT22;67941;52.506;5.470;2023-11-19T02:09:12;12.10;86.40
78619;DHT22;67941;52.506;5.470;2023-11-19T02:11:45;12.10;86.50
78619;DHT22;67941;52.506;5.470;2023-11-19T02:14:17;12.20;86.50
78619;DHT22;67941;52.506;5.470;2023-11-19T02:16:46;12.20;86.50
78619;DHT22;67941;52.506;5.470;2023-11-19T02:19:15;12.20;86.60
78619;DHT22;67941;52.506;5.470;2023-11-19T02:21:44;12.30;86.50
78619;DHT22;67941;52.506;5.470;2023-11-19T02:24:17;12.30;86.40
78619;DHT22;67941;52.506;5.470;2023-11-19T02:26:59;12.20;86.30
78619;DHT22;67941;52.506;5.470;2023-11-19T02:29:34;12.20;86.30
78619;DHT22;67941;52.506;5.470;2023-11-19T02:32:03;12.20;86.20
78619;DHT22;67941;52.506;5.470;2023-11-19T02:34:35;12.20;86.20
78619;DHT22;67941;52.506;5.470;2023-11-19T02:37:04;12.10;86.10
78619;DHT22;67941;52.506;5.470;2023-11-19T02:39:34;12.10;86.00
78619;DHT22;67941;52.506;5.470;2023-11-19T02:42:03;12.10;86.00
78619;DHT22;67941;52.506;5.470;2023-11-19T02:44:35;12.00;85.90
78619;DHT22;67941;52.506;5.470;2023-11-19T02:47:05;11.90;85.90
78619;DHT22;67941;52.506;5.470;2023-11-19T02:49:34;11.90;85.90
78619;DHT22;67941;52.506;5.470;2023-11-19T02:52:05;11.90;85.90
78619;DHT22;67941;52.506;5.470;2023-11-19T02:54:36;11.90;86.00
78619;DHT22;67941;52.506;5.470;2023-11-19T02:57:05;11.90;86.20
78619;DHT22;67941;52.506;5.470;2023-11-19T02:59:39;11.80;86.30
78619;DHT22;67941;52.506;5.470;2023-11-19T03:02:09;11.80;86.20
78619;DHT22;67941;52.506;5.470;2023-11-19T03:04:42;11.80;86.10
78619;DHT22;67941;52.506;5.470;2023-11-19T03:07:11;11.80;86.10
78619;DHT22;67941;52.506;5.470;2023-11-19T03:09:40;11.70;86.00
78619;DHT22;67941;52.506;5.470;2023-11-19T03:12:09;11.70;85.90
78619;DHT22;67941;52.506;5.470;2023-11-19T03:14:41;11.70;85.90
78619;DHT22;67941;52.506;5.470;2023-11-19T03:17:10;11.70;85.80
78619;DHT22;67941;52.506;5.470;2023-11-19T03:19:39;11.60;85.80
78619;DHT22;67941;52.506;5.470;2023-11-19T03:22:09;11.60;85.80
78619;DHT22;67941;52.506;5.470;2023-11-19T03:24:38;11.50;85.70
78619;DHT22;67941;52.506;5.470;2023-11-19T03:27:09;11.50;85.70
78619;DHT22;67941;52.506;5.470;2023-11-19T03:29:41;11.50;85.70
78619;DHT22;67941;52.506;5.470;2023-11-19T03:32:10;11.50;85.70
78619;DHT22;67941;52.506;5.470;2023-11-19T03:34:40;11.40;85.80
78619;DHT22;67941;52.506;5.470;2023-11-19T03:37:09;11.40;85.80
78619;DHT22;67941;52.506;5.470;2023-11-19T03:39:38;11.40;85.80
78619;DHT22;67941;52.506;5.470;2023-11-19T03:42:07;11.40;85.80
78619;DHT22;67941;52.506;5.470;2023-11-19T03:44:37;11.40;85.80
78619;DHT22;67941;52.506;5.470;2023-11-19T03:47:09;11.30;85.80
78619;DHT22;67941;52.506;5.470;2023-11-19T03:49:38;11.30;86.00
78619;DHT22;67941;52.506;5.470;2023-11-19T03:52:07;11.40;86.00
78619;DHT22;67941;52.506;5.470;2023-11-19T03:54:36;11.30;86.00
78619;DHT22;67941;52.506;5.470;2023-11-19T03:57:05;11.40;86.00
78619;DHT22;67941;52.506;5.470;2023-11-19T03:59:36;11.40;86.10
78619;DHT22;67941;52.506;5.470;2023-11-19T04:02:05;11.40;86.10
78619;DHT22;67941;52.506;5.470;2023-11-19T04:04:36;11.40;86.20
78619;DHT22;67941;52.506;5.470;2023-11-19T04:07:05;11.50;86.30
78619;DHT22;67941;52.506;5.470;2023-11-19T04:09:35;11.50;86.40
78619;DHT22;67941;52.506;5.470;2023-11-19T04:12:04;11.50;86.30
78619;DHT22;67941;52.506;5.470;2023-11-19T04:14:34;11.70;86.30
78619;DHT22;67941;52.506;5.470;2023-11-19T04:17:03;11.70;86.30
78619;DHT22;67941;52.506;5.470;2023-11-19T04:19:32;11.70;86.30
78619;DHT22;67941;52.506;5.470;2023-11-19T04:22:04;11.80;86.20
78619;DHT22;67941;52.506;5.470;2023-11-19T04:24:33;11.90;86.20
78619;DHT22;67941;52.506;5.470;2023-11-19T04:27:02;11.90;86.10
78619;DHT22;67941;52.506;5.470;2023-11-19T04:29:32;11.90;86.00
78619;DHT22;67941;52.506;5.470;2023-11-19T04:32:01;12.00;85.90
78619;DHT22;67941;52.506;5.470;2023-11-19T04:34:31;12.00;85.90
78619;DHT22;67941;52.506;5.470;2023-11-19T04:37:03;12.00;85.90
78619;DHT22;67941;52.506;5.470;2023-11-19T04:39:32;12.00;85.80
78619;DHT22;67941;52.506;5.470;2023-11-19T04:42:01;12.00;85.70
78619;DHT22;67941;52.506;5.470;2023-11-19T04:44:32;12.00;85.60
78619;DHT22;67941;52.506;5.470;2023-11-19T04:47:01;12.00;85.50
78619;DHT22;67941;52.506;5.470;2023-11-19T04:49:30;11.90;85.50
78619;DHT22;67941;52.506;5.470;2023-11-19T04:51:59;11.90;85.50
78619;DHT22;67941;52.506;5.470;2023-11-19T04:54:31;11.90;85.40
78619;DHT22;67941;52.506;5.470;2023-11-19T04:57:00;11.90;85.30
78619;DHT22;67941;52.506;5.470;2023-11-19T04:59:29;11.70;85.10
78619;DHT22;67941;52.506;5.470;2023-11-19T05:02:01;11.70;85.00
78619;DHT22;67941;52.506;5.470;2023-11-19T05:04:30;11.60;85.00
78619;DHT22;67941;52.506;5.470;2023-11-19T05:06:58;11.50;85.10
78619;DHT22;67941;52.506;5.470;2023-11-19T05:09:27;11.50;85.20
78619;DHT22;67941;52.506;5.470;2023-11-19T05:11:59;11.50;85.40
78619;DHT22;67941;52.506;5.470;2023-11-19T05:14:28;11.50;85.40
78619;DHT22;67941;52.506;5.470;2023-11-19T05:16:57;11.50;85.50
78619;DHT22;67941;52.506;5.470;2023-11-19T05:19:25;11.50;85.40
78619;DHT22;67941;52.506;5.470;2023-11-19T05:21:54;11.50;85.50
78619;DHT22;67941;52.506;5.470;2023-11-19T05:24:23;11.50;85.50
78619;DHT22;67941;52.506;5.470;2023-11-19T05:26:52;11.50;85.50
78619;DHT22;67941;52.506;5.470;2023-11-19T05:29:24;11.60;85.50
78619;DHT22;67941;52.506;5.470;2023-11-19T05:31:53;11.70;85.50
78619;DHT22;67941;52.506;5.470;2023-11-19T05:34:22;11.70;85.50
78619;DHT22;67941;52.506;5.470;2023-11-19T05:36:52;11.70;85.50
78619;DHT22;67941;52.506;5.470;2023-11-19T05:39:21;11.70;85.50
78619;DHT22;67941;52.506;5.470;2023-11-19T05:41:50;11.80;85.40
78619;DHT22;67941;52.506;5.470;2023-11-19T05:44:19;11.80;85.30
78619;DHT22;67941;52.506;5.470;2023-11-19T05:46:51;11.90;85.30
78619;DHT22;67941;52.506;5.470;2023-11-19T05:49:21;11.90;85.20
78619;DHT22;67941;52.506;5.470;2023-11-19T05:51:50;11.90;85.10
78619;DHT22;67941;52.506;5.470;2023-11-19T05:54:21;11.90;85.00
78619;DHT22;67941;52.506;5.470;2023-11-19T05:56:51;11.80;84.90
78619;DHT22;67941;52.506;5.470;2023-11-19T05:59:20;11.80;84.70
78619;DHT22;67941;52.506;5.470;2023-11-19T06:01:52;11.70;84.70
78619;DHT22;67941;52.506;5.470;2023-11-19T06:04:21;11.70;84.60
78619;DHT22;67941;52.506;5.470;2023-11-19T06:06:50;11.60;84.60
78619;DHT22;67941;52.506;5.470;2023-11-19T06:09:20;11.50;84.70
78619;DHT22;67941;52.506;5.470;2023-11-19T06:11:50;11.50;84.80
78619;DHT22;67941;52.506;5.470;2023-11-19T06:14:21;11.50;84.70
78619;DHT22;67941;52.506;5.470;2023-11-19T06:16:52;11.50;84.60
78619;DHT22;67941;52.506;5.470;2023-11-19T06:19:21;11.50;84.50
78619;DHT22;67941;52.506;5.470;2023-11-19T06:21:50;11.40;84.40
78619;DHT22;67941;52.506;5.470;2023-11-19T06:24:19;11.40;84.30
78619;DHT22;67941;52.506;5.470;2023-11-19T06:26:48;11.30;84.20
78619;DHT22;67941;52.506;5.470;2023-11-19T06:29:17;11.20;84.30
78619;DHT22;67941;52.506;5.470;2023-11-19T06:31:46;11.10;84.20
78619;DHT22;67941;52.506;5.470;2023-11-19T06:34:18;11.10;84.20
78619;DHT22;67941;52.506;5.470;2023-11-19T06:36:47;11.10;84.20
78619;DHT22;67941;52.506;5.470;2023-11-19T06:39:17;11.10;84.20
78619;DHT22;67941;52.506;5.470;2023-11-19T06:41:46;11.00;84.20
78619;DHT22;67941;52.506;5.470;2023-11-19T06:44:15;11.00;84.20
78619;DHT22;67941;52.506;5.470;2023-11-19T06:46:44;10.90;84.20
78619;DHT22;67941;52.506;5.470;2023-11-19T06:49:13;10.90;84.40
78619;DHT22;67941;52.506;5.470;2023-11-19T06:51:45;10.90;84.30
78619;DHT22;67941;52.506;5.470;2023-11-19T06:54:14;10.90;84.40
78619;DHT22;67941;52.506;5.470;2023-11-19T06:56:42;10.90;84.40
78619;DHT22;67941;52.506;5.470;2023-11-19T06:59:12;10.90;84.40
78619;DHT22;67941;52.506;5.470;2023-11-19T07:01:41;10.90;84.40
78619;DHT22;67941;52.506;5.470;2023-11-19T07:04:10;10.90;84.30
78619;DHT22;67941;52.506;5.470;2023-11-19T07:06:39;10.90;84.30
78619;DHT22;67941;52.506;5.470;2023-11-19T07:09:11;10.90;84.20
78619;DHT22;67941;52.506;5.470;2023-11-19T07:11:41;10.90;84.20
78619;DHT22;67941;52.506;5.470;2023-11-19T07:14:12;10.90;84.30
78619;DHT22;67941;52.506;5.470;2023-11-19T07:16:40;10.90;84.40
78619;DHT22;67941;52.506;5.470;2023-11-19T07:19:09;11.00;84.30
78619;DHT22;67941;52.506;5.470;2023-11-19T07:21:41;11.00;84.50
78619;DHT22;67941;52.506;5.470;2023-11-19T07:24:13;11.00;84.50
78619;DHT22;67941;52.506;5.470;2023-11-19T07:26:43;11.10;84.40
78619;DHT22;67941;52.506;5.470;2023-11-19T07:29:13;11.10;84.50
78619;DHT22;67941;52.506;5.470;2023-11-19T07:31:42;11.10;84.40
78619;DHT22;67941;52.506;5.470;2023-11-19T07:34:11;11.20;84.50
78619;DHT22;67941;52.506;5.470;2023-11-19T07:36:40;11.30;84.50
78619;DHT22;67941;52.506;5.470;2023-11-19T07:39:11;11.40;84.50
78619;DHT22;67941;52.506;5.470;2023-11-19T07:41:40;11.40;84.40
78619;DHT22;67941;52.506;5.470;2023-11-19T07:44:10;11.50;84.50
78619;DHT22;67941;52.506;5.470;2023-11-19T07:46:39;11.50;84.40
78619;DHT22;67941;52.506;5.470;2023-11-19T07:49:08;11.60;84.40
78619;DHT22;67941;52.506;5.470;2023-11-19T07:51:37;11.70;84.40
78619;DHT22;67941;52.506;5.470;2023-11-19T07:54:06;11.70;84.30
78619;DHT22;67941;52.506;5.470;2023-11-19T07:56:37;11.70;84.40
78619;DHT22;67941;52.506;5.470;2023-11-19T07:59:06;11.70;84.40
78619;DHT22;67941;52.506;5.470;2023-11-19T08:01:35;11.90;84.30
78619;DHT22;67941;52.506;5.470;2023-11-19T08:04:04;11.90;84.40
78619;DHT22;67941;52.506;5.470;2023-11-19T08:06:33;11.90;84.30
78619;DHT22;67941;52.506;5.470;2023-11-19T08:09:03;11.90;84.10
78619;DHT22;67941;52.506;5.470;2023-11-19T08:11:32;11.90;84.00
78619;DHT22;67941;52.506;5.470;2023-11-19T08:14:03;11.90;83.80
78619;DHT22;67941;52.506;5.470;2023-11-19T08:16:32;11.90;83.70
78619;DHT22;67941;52.506;5.470;2023-11-19T08:19:01;11.80;83.70
78619;DHT22;67941;52.506;5.470;2023-11-19T08:21:29;11.80;83.70
78619;DHT22;67941;52.506;5.470;2023-11-19T08:23:58;11.70;83.80
78619;DHT22;67941;52.506;5.470;2023-11-19T08:26:27;11.70;83.90
78619;DHT22;67941;52.506;5.470;2023-11-19T08:28:56;11.70;83.80
78619;DHT22;67941;52.506;5.470;2023-11-19T08:31:27;11.70;83.80
78619;DHT22;67941;52.506;5.470;2023-11-19T08:33:56;11.70;83.80
78619;DHT22;67941;52.506;5.470;2023-11-19T08:36:25;11.60;83.80
78619;DHT22;67941;52.506;5.470;2023-11-19T08:38:54;11.60;83.80
78619;DHT22;67941;52.506;5.470;2023-11-19T08:41:23;11.60;83.80
78619;DHT22;67941;52.506;5.470;2023-11-19T08:43:52;11.60;83.80
78619;DHT22;67941;52.506;5.470;2023-11-19T08:46:21;11.60;83.80
78619;DHT22;67941;52.506;5.470;2023-11-19T08:48:52;11.60;83.80
78619;DHT22;67941;52.506;5.470;2023-11-19T08:51:24;11.70;83.80
78619;DHT22;67941;52.506;5.470;2023-11-19T08:53:54;11.70;83.70
78619;DHT22;67941;52.506;5.470;2023-11-19T08:56:23;11.70;83.70
78619;DHT22;67941;52.506;5.470;2023-11-19T08:58:57;11.70;83.80
78619;DHT22;67941;52.506;5.470;2023-11-19T09:01:26;11.70;83.80
78619;DHT22;67941;52.506;5.470;2023-11-19T09:03:58;11.70;83.80
78619;DHT22;67941;52.506;5.470;2023-11-19T09:06:26;11.80;84.00
78619;DHT22;67941;52.506;5.470;2023-11-19T09:08:55;11.90;84.20
78619;DHT22;67941;52.506;5.470;2023-11-19T09:11:28;12.00;84.10
78619;DHT22;67941;52.506;5.470;2023-11-19T09:13:57;12.20;84.10
78619;DHT22;67941;52.506;5.470;2023-11-19T09:16:26;12.30;84.00
78619;DHT22;67941;52.506;5.470;2023-11-19T09:18:57;12.40;84.00
78619;DHT22;67941;52.506;5.470;2023-11-19T09:21:28;12.50;83.90
78619;DHT22;67941;52.506;5.470;2023-11-19T09:23:58;12.50;83.70
78619;DHT22;67941;52.506;5.470;2023-11-19T09:26:27;12.70;83.70
78619;DHT22;67941;52.506;5.470;2023-11-19T09:28:56;12.70;83.70
78619;DHT22;67941;52.506;5.470;2023-11-19T09:31:25;12.80;83.70
78619;DHT22;67941;52.506;5.470;2023-11-19T09:33:54;12.90;83.70
78619;DHT22;67941;52.506;5.470;2023-11-19T09:36:25;13.00;83.70
78619;DHT22;67941;52.506;5.470;2023-11-19T09:38:54;13.10;83.40
78619;DHT22;67941;52.506;5.470;2023-11-19T09:41:23;13.10;83.30
78619;DHT22;67941;52.506;5.470;2023-11-19T09:43:53;13.10;83.20
78619;DHT22;67941;52.506;5.470;2023-11-19T09:46:22;13.10;83.20
78619;DHT22;67941;52.506;5.470;2023-11-19T09:48:53;13.10;83.00
78619;DHT22;67941;52.506;5.470;2023-11-19T09:51:25;13.10;83.00
78619;DHT22;67941;52.506;5.470;2023-11-19T09:53:54;13.10;82.90
78619;DHT22;67941;52.506;5.470;2023-11-19T09:56:23;13.10;82.90
78619;DHT22;67941;52.506;5.470;2023-11-19T09:58:52;13.00;83.00
78619;DHT22;67941;52.506;5.470;2023-11-19T10:01:21;13.10;83.00
78619;DHT22;67941;52.506;5.470;2023-11-19T10:03:50;13.10;83.00
78619;DHT22;67941;52.506;5.470;2023-11-19T10:06:21;13.10;83.10
78619;DHT22;67941;52.506;5.470;2023-11-19T10:08:53;13.10;83.10
78619;DHT22;67941;52.506;5.470;2023-11-19T10:11:21;13.20;83.00
78619;DHT22;67941;52.506;5.470;2023-11-19T10:13:52;13.20;83.00
78619;DHT22;67941;52.506;5.470;2023-11-19T10:16:28;13.30;83.00
78619;DHT22;67941;52.506;5.470;2023-11-19T10:18:58;13.30;83.00
78619;DHT22;67941;52.506;5.470;2023-11-19T10:21:26;13.30;82.90
78619;DHT22;67941;52.506;5.470;2023-11-19T10:24:00;13.40;83.00
78619;DHT22;67941;52.506;5.470;2023-11-19T10:26:29;13.50;83.00
78619;DHT22;67941;52.506;5.470;2023-11-19T10:28:59;13.50;82.80
78619;DHT22;67941;52.506;5.470;2023-11-19T10:31:28;13.50;82.70
78619;DHT22;67941;52.506;5.470;2023-11-19T10:33:57;13.50;82.60
78619;DHT22;67941;52.506;5.470;2023-11-19T10:36:37;13.40;82.50
78619;DHT22;67941;52.506;5.470;2023-11-19T10:39:09;13.40;82.40
78619;DHT22;67941;52.506;5.470;2023-11-19T10:41:38;13.30;82.40
78619;DHT22;67941;52.506;5.470;2023-11-19T10:44:07;13.30;82.50
78619;DHT22;67941;52.506;5.470;2023-11-19T10:46:37;13.30;82.50
78619;DHT22;67941;52.506;5.470;2023-11-19T10:49:07;13.30;82.40
78619;DHT22;67941;52.506;5.470;2023-11-19T10:51:36;13.30;82.40
78619;DHT22;67941;52.506;5.470;2023-11-19T10:54:11;13.20;82.30
78619;DHT22;67941;52.506;5.470;2023-11-19T10:56:42;13.20;82.10
78619;DHT22;67941;52.506;5.470;2023-11-19T10:59:13;13.10;82.00
78619;DHT22;67941;52.506;5.470;2023-11-19T11:01:45;13.10;81.90
78619;DHT22;67941;52.506;5.470;2023-11-19T11:04:33;13.00;82.00
78619;DHT22;67941;52.506;5.470;2023-11-19T11:07:09;12.90;82.00
78619;DHT22;67941;52.506;5.470;2023-11-19T11:09:41;12.90;82.10
78619;DHT22;67941;52.506;5.470;2023-11-19T11:12:12;13.00;82.30
78619;DHT22;67941;52.506;5.470;2023-11-19T11:14:42;13.00;82.40
78619;DHT22;67941;52.506;5.470;2023-11-19T11:17:13;13.10;82.40
78619;DHT22;67941;52.506;5.470;2023-11-19T11:19:44;13.20;82.40
78619;DHT22;67941;52.506;5.470;2023-11-19T11:22:14;13.30;82.30
78619;DHT22;67941;52.506;5.470;2023-11-19T11:25:08;13.30;82.10
78619;DHT22;67941;52.506;5.470;2023-11-19T11:27:53;13.50;82.00
78619;DHT22;67941;52.506;5.470;2023-11-19T11:30:35;13.50;81.90
78619;DHT22;67941;52.506;5.470;2023-11-19T11:33:22;13.50;81.70
78619;DHT22;67941;52.506;5.470;2023-11-19T11:35:59;13.50;81.70
78619;DHT22;67941;52.506;5.470;2023-11-19T11:38:37;13.50;81.80
78619;DHT22;67941;52.506;5.470;2023-11-19T11:41:20;13.50;81.70
78619;DHT22;67941;52.506;5.470;2023-11-19T11:43:50;13.50;81.60
78619;DHT22;67941;52.506;5.470;2023-11-19T11:49:29;13.50;81.70
78619;DHT22;67941;52.506;5.470;2023-11-19T11:52:01;13.60;81.50
78619;DHT22;67941;52.506;5.470;2023-11-19T11:54:31;13.60;81.30
78619;DHT22;67941;52.506;5.470;2023-11-19T11:57:07;13.60;81.50
78619;DHT22;67941;52.506;5.470;2023-11-19T11:59:49;13.60;81.50
78619;DHT22;67941;52.506;5.470;2023-11-19T12:02:19;13.60;81.40
78619;DHT22;67941;52.506;5.470;2023-11-19T12:04:49;13.60;81.30
78619;DHT22;67941;52.506;5.470;2023-11-19T12:07:20;13.60;81.20
78619;DHT22;67941;52.506;5.470;2023-11-19T12:09:52;13.60;81.20
78619;DHT22;67941;52.506;5.470;2023-11-19T12:12:27;13.60;81.20
78619;DHT22;67941;52.506;5.470;2023-11-19T12:15:07;13.60;81.10
78619;DHT22;67941;52.506;5.470;2023-11-19T12:17:48;13.70;81.00
78619;DHT22;67941;52.506;5.470;2023-11-19T12:20:19;13.70;80.90
78619;DHT22;67941;52.506;5.470;2023-11-19T12:22:48;13.70;80.90
78619;DHT22;67941;52.506;5.470;2023-11-19T12:25:18;13.70;80.80
78619;DHT22;67941;52.506;5.470;2023-11-19T12:27:51;13.70;80.70
78619;DHT22;67941;52.506;5.470;2023-11-19T12:30:22;13.70;80.50
78619;DHT22;67941;52.506;5.470;2023-11-19T12:32:52;13.70;80.60
78619;DHT22;67941;52.506;5.470;2023-11-19T12:35:22;13.70;80.60
78619;DHT22;67941;52.506;5.470;2023-11-19T12:37:51;13.70;80.50
78619;DHT22;67941;52.506;5.470;2023-11-19T12:40:22;13.70;80.50
78619;DHT22;67941;52.506;5.470;2023-11-19T12:42:54;13.80;80.50
78619;DHT22;67941;52.506;5.470;2023-11-19T12:45:23;13.80;80.60
78619;DHT22;67941;52.506;5.470;2023-11-19T12:48:04;13.90;80.50
78619;DHT22;67941;52.506;5.470;2023-11-19T12:50:51;13.90;80.50
78619;DHT22;67941;52.506;5.470;2023-11-19T12:53:22;13.90;80.30
78619;DHT22;67941;52.506;5.470;2023-11-19T12:55:51;13.90;80.20
78619;DHT22;67941;52.506;5.470;2023-11-19T12:58:34;13.90;80.10
78619;DHT22;67941;52.506;5.470;2023-11-19T13:01:06;13.90;80.00
78619;DHT22;67941;52.506;5.470;2023-11-19T13:03:36;13.80;80.00
78619;DHT22;67941;52.506;5.470;2023-11-19T13:06:07;13.70;80.00
78619;DHT22;67941;52.506;5.470;2023-11-19T13:08:37;13.70;79.90
78619;DHT22;67941;52.506;5.470;2023-11-19T13:11:07;13.70;79.90
78619;DHT22;67941;52.506;5.470;2023-11-19T13:13:57;13.60;79.80
78619;DHT22;67941;52.506;5.470;2023-11-19T13:16:27;13.60;79.70
78619;DHT22;67941;52.506;5.470;2023-11-19T13:18:57;13.50;79.70
78619;DHT22;67941;52.506;5.470;2023-11-19T13:21:26;13.40;79.70
78619;DHT22;67941;52.506;5.470;2023-11-19T13:23:55;13.30;79.70
78619;DHT22;67941;52.506;5.470;2023-11-19T13:26:24;13.20;79.60
78619;DHT22;67941;52.506;5.470;2023-11-19T13:28:53;13.10;79.50
78619;DHT22;67941;52.506;5.470;2023-11-19T13:31:24;12.90;79.50
78619;DHT22;67941;52.506;5.470;2023-11-19T13:33:54;12.80;79.60
78619;DHT22;67941;52.506;5.470;2023-11-19T13:36:24;12.60;79.80
78619;DHT22;67941;52.506;5.470;2023-11-19T13:38:52;12.50;80.00
78619;DHT22;67941;52.506;5.470;2023-11-19T13:41:25;12.40;80.10
78619;DHT22;67941;52.506;5.470;2023-11-19T13:43:54;12.30;80.20
78619;DHT22;67941;52.506;5.470;2023-11-19T13:46:25;12.30;80.30
78619;DHT22;67941;52.506;5.470;2023-11-19T13:48:54;12.30;80.40
78619;DHT22;67941;52.506;5.470;2023-11-19T13:51:23;12.30;80.50
78619;DHT22;67941;52.506;5.470;2023-11-19T13:53:52;12.30;80.60
78619;DHT22;67941;52.506;5.470;2023-11-19T13:56:21;12.30;80.70
78619;DHT22;67941;52.506;5.470;2023-11-19T13:58:49;12.30;80.70
78619;DHT22;67941;52.506;5.470;2023-11-19T14:01:19;12.50;80.80
78619;DHT22;67941;52.506;5.470;2023-11-19T14:03:51;12.50;80.80
78619;DHT22;67941;52.506;5.470;2023-11-19T14:06:19;12.50;80.80
78619;DHT22;67941;52.506;5.470;2023-11-19T14:08:48;12.50;80.80
78619;DHT22;67941;52.506;5.470;2023-11-19T14:11:17;12.60;80.70
78619;DHT22;67941;52.506;5.470;2023-11-19T14:13:46;12.70;80.70
78619;DHT22;67941;52.506;5.470;2023-11-19T14:16:16;12.80;80.70
78619;DHT22;67941;52.506;5.470;2023-11-19T14:18:44;12.80;80.70
78619;DHT22;67941;52.506;5.470;2023-11-19T14:21:17;12.90;80.70
78619;DHT22;67941;52.506;5.470;2023-11-19T14:23:46;12.90;80.70
78619;DHT22;67941;52.506;5.470;2023-11-19T14:26:15;13.00;80.70
78619;DHT22;67941;52.506;5.470;2023-11-19T14:28:44;13.00;80.70
78619;DHT22;67941;52.506;5.470;2023-11-19T14:31:12;13.10;80.60
78619;DHT22;67941;52.506;5.470;2023-11-19T14:33:41;13.10;80.50
78619;DHT22;67941;52.506;5.470;2023-11-19T14:36:10;13.10;80.40
78619;DHT22;67941;52.506;5.470;2023-11-19T14:38:42;13.10;80.30
78619;DHT22;67941;52.506;5.470;2023-11-19T14:41:10;13.10;80.30
78619;DHT22;67941;52.506;5.470;2023-11-19T14:43:39;13.10;80.20
78619;DHT22;67941;52.506;5.470;2023-11-19T14:46:08;13.00;80.20
78619;DHT22;67941;52.506;5.470;2023-11-19T14:48:37;13.00;80.20
78619;DHT22;67941;52.506;5.470;2023-11-19T14:51:06;13.00;80.10
78619;DHT22;67941;52.506;5.470;2023-11-19T14:53:35;13.00;80.10
78619;DHT22;67941;52.506;5.470;2023-11-19T14:56:10;12.90;80.20
78619;DHT22;67941;52.506;5.470;2023-11-19T14:58:39;12.90;80.20
78619;DHT22;67941;52.506;5.470;2023-11-19T15:01:11;12.90;80.10
78619;DHT22;67941;52.506;5.470;2023-11-19T15:03:41;12.90;80.20
78619;DHT22;67941;52.506;5.470;2023-11-19T15:06:07;12.90;80.20
78619;DHT22;67941;52.506;5.470;2023-11-19T15:08:37;12.90;80.10
78619;DHT22;67941;52.506;5.470;2023-11-19T15:11:08;12.90;80.10
78619;DHT22;67941;52.506;5.470;2023-11-19T15:13:37;12.80;80.00
78619;DHT22;67941;52.506;5.470;2023-11-19T15:16:08;12.80;80.00
78619;DHT22;67941;52.506;5.470;2023-11-19T15:18:37;12.70;79.90
78619;DHT22;67941;52.506;5.470;2023-11-19T15:21:07;12.60;80.00
78619;DHT22;67941;52.506;5.470;2023-11-19T15:23:37;12.50;80.00
78619;DHT22;67941;52.506;5.470;2023-11-19T15:26:09;12.50;79.90
78619;DHT22;67941;52.506;5.470;2023-11-19T15:28:56;12.40;80.00
78619;DHT22;67941;52.506;5.470;2023-11-19T15:31:25;12.30;80.00
78619;DHT22;67941;52.506;5.470;2023-11-19T15:33:54;12.20;80.00
78619;DHT22;67941;52.506;5.470;2023-11-19T15:36:23;12.10;80.10
78619;DHT22;67941;52.506;5.470;2023-11-19T15:38:52;12.10;80.20
78619;DHT22;67941;52.506;5.470;2023-11-19T15:41:23;12.00;80.30
78619;DHT22;67941;52.506;5.470;2023-11-19T15:43:53;12.00;80.40
78619;DHT22;67941;52.506;5.470;2023-11-19T15:46:22;12.00;80.50
78619;DHT22;67941;52.506;5.470;2023-11-19T15:48:51;12.00;80.50
78619;DHT22;67941;52.506;5.470;2023-11-19T15:51:20;12.00;80.60
78619;DHT22;67941;52.506;5.470;2023-11-19T15:53:49;12.00;80.60